createdAt,value
2023-04-28T00:00:19.499Z,24.43
2023-04-28T00:02:48.166Z,19.67
2023-04-28T00:05:15.579Z,21.40
2023-04-28T00:07:42.287Z,20.87
2023-04-28T00:10:09.624Z,20.60
2023-04-28T00:12:36.301Z,22.13
2023-04-28T00:15:03.703Z,23.70
2023-04-28T00:17:30.191Z,18.60
2023-04-28T00:19:57.755Z,18.67
2023-04-28T00:22:24.178Z,24.53
2023-04-28T00:24:50.594Z,22.33
2023-04-28T00:27:17.075Z,20.90
2023-04-28T00:29:43.644Z,22.43
2023-04-28T00:32:10.093Z,25.03
2023-04-28T00:34:37.483Z,22.37
2023-04-28T00:37:04.696Z,20.03
2023-04-28T00:39:31.225Z,21.57
2023-04-28T00:41:57.881Z,17.93
2023-04-28T00:44:24.478Z,21.97
2023-04-28T00:46:51.111Z,22.60
2023-04-28T00:49:17.519Z,21.83
2023-04-28T00:51:44.472Z,21.03
2023-04-28T00:54:14.105Z,23.90
2023-04-28T00:56:41.135Z,24.20
2023-04-28T00:59:07.669Z,21.80
2023-04-28T01:01:35.365Z,19.80
2023-04-28T01:04:02.233Z,22.17
2023-04-28T01:06:29.318Z,24.23
2023-04-28T01:08:55.955Z,19.80
2023-04-28T01:11:22.739Z,25.17
2023-04-28T01:13:49.334Z,22.73
2023-04-28T01:16:15.955Z,20.90
2023-04-28T01:18:47.622Z,19.50
2023-04-28T01:21:14.165Z,21.67
2023-04-28T01:23:40.825Z,23.57
2023-04-28T01:26:07.681Z,22.50
2023-04-28T01:28:34.263Z,25.67
2023-04-28T01:31:00.867Z,19.37
2023-04-28T01:33:28.012Z,23.50
2023-04-28T01:35:58.509Z,21.47
2023-04-28T01:38:25.210Z,21.33
2023-04-28T01:40:52.038Z,21.80
2023-04-28T01:43:18.864Z,20.57
2023-04-28T01:45:45.419Z,20.90
2023-04-28T01:48:12.378Z,20.57
2023-04-28T01:50:39.094Z,23.17
2023-04-28T01:53:05.741Z,22.87
2023-04-28T01:55:32.206Z,22.53
2023-04-28T01:57:59.515Z,22.67
2023-04-28T02:00:27.183Z,20.13
2023-04-28T02:02:53.963Z,23.27
2023-04-28T02:05:20.563Z,21.97
2023-04-28T02:07:47.269Z,22.63
2023-04-28T02:10:14.204Z,22.70
2023-04-28T02:12:42.659Z,23.53
2023-04-28T02:15:09.602Z,24.00
2023-04-28T02:17:36.382Z,24.40
2023-04-28T02:20:03.412Z,24.93
2023-04-28T02:22:30.195Z,21.83
2023-04-28T02:24:57.474Z,23.37
2023-04-28T02:27:24.054Z,23.67
2023-04-28T02:29:50.620Z,24.77
2023-04-28T02:32:17.118Z,23.37
2023-04-28T02:34:43.979Z,23.83
2023-04-28T02:37:10.487Z,23.33
2023-04-28T02:39:37.290Z,23.83
2023-04-28T02:42:05.470Z,24.03
2023-04-28T02:44:32.067Z,26.20
2023-04-28T02:46:58.948Z,21.40
2023-04-28T02:49:25.365Z,25.53
2023-04-28T02:51:52.062Z,25.40
2023-04-28T02:54:27.441Z,23.70
2023-04-28T02:56:54.693Z,22.03
2023-04-28T02:59:22.002Z,26.63
2023-04-28T03:01:48.886Z,23.87
2023-04-28T03:04:16.250Z,23.40
2023-04-28T03:06:43.111Z,26.97
2023-04-28T03:09:10.792Z,24.57
2023-04-28T03:11:37.246Z,20.90
2023-04-28T03:14:04.496Z,26.97
2023-04-28T03:16:31.113Z,21.80
2023-04-28T03:18:57.572Z,27.57
2023-04-28T03:21:24.461Z,21.33
2023-04-28T03:23:51.044Z,26.97
2023-04-28T03:26:17.606Z,23.33
2023-04-28T03:28:44.217Z,24.13
2023-04-28T03:31:10.904Z,23.77
2023-04-28T03:33:37.296Z,21.03
2023-04-28T03:36:04.045Z,22.47
2023-04-28T03:38:30.478Z,21.47
2023-04-28T03:40:56.975Z,28.67
2023-04-28T03:43:23.532Z,23.00
2023-04-28T03:45:50.190Z,22.93
2023-04-28T03:48:16.842Z,21.10
2023-04-28T03:50:45.541Z,25.57
2023-04-28T03:53:12.712Z,22.00
2023-04-28T03:55:39.946Z,21.40
2023-04-28T03:58:07.020Z,21.77
2023-04-28T04:00:33.532Z,20.97
2023-04-28T04:03:00.274Z,20.87
2023-04-28T04:05:26.986Z,26.50
2023-04-28T04:07:53.539Z,21.03
2023-04-28T04:10:19.966Z,20.93
2023-04-28T04:12:46.480Z,25.83
2023-04-28T04:15:13.056Z,25.30
2023-04-28T04:17:39.581Z,23.33
2023-04-28T04:20:07.355Z,22.40
2023-04-28T04:22:34.352Z,22.83
2023-04-28T04:25:00.928Z,20.20
2023-04-28T04:27:27.416Z,22.43
2023-04-28T04:29:53.861Z,22.67
2023-04-28T04:32:20.277Z,24.67
2023-04-28T04:34:46.868Z,19.63
2023-04-28T04:37:13.397Z,21.70
2023-04-28T04:39:39.941Z,21.27
2023-04-28T04:42:20.647Z,19.30
2023-04-28T04:44:50.680Z,19.00
2023-04-28T04:47:17.854Z,19.40
2023-04-28T04:49:44.442Z,22.10
2023-04-28T04:52:11.079Z,20.23
2023-04-28T04:54:38.202Z,19.10
2023-04-28T04:57:04.814Z,19.83
2023-04-28T04:59:31.226Z,23.23
2023-04-28T05:01:57.832Z,22.83
2023-04-28T05:04:24.467Z,21.10
2023-04-28T05:06:51.569Z,21.90
2023-04-28T05:09:18.211Z,19.33
2023-04-28T05:11:45.534Z,21.03
2023-04-28T05:14:12.085Z,18.33
2023-04-28T05:16:39.103Z,26.17
2023-04-28T05:19:05.738Z,20.70
2023-04-28T05:21:32.683Z,19.67
2023-04-28T05:23:59.386Z,17.50
2023-04-28T05:26:26.206Z,22.77
2023-04-28T05:28:52.692Z,18.33
2023-04-28T05:31:19.202Z,18.53
2023-04-28T05:33:46.020Z,23.40
2023-04-28T05:36:12.834Z,23.20
2023-04-28T05:38:39.488Z,24.77
2023-04-28T05:41:06.229Z,20.17
2023-04-28T05:43:32.688Z,18.67
2023-04-28T05:46:00.598Z,17.07
2023-04-28T05:48:27.175Z,22.27
2023-04-28T05:50:53.568Z,19.47
2023-04-28T05:53:20.409Z,18.37
2023-04-28T05:55:46.927Z,18.63
2023-04-28T05:58:13.489Z,20.77
2023-04-28T06:00:39.860Z,22.97
2023-04-28T06:03:08.653Z,24.77
2023-04-28T06:05:35.508Z,17.53
2023-04-28T06:08:03.572Z,24.37
2023-04-28T06:10:30.029Z,22.50
2023-04-28T06:12:56.612Z,20.10
2023-04-28T06:15:23.026Z,18.13
2023-04-28T06:17:49.676Z,18.08
2023-04-28T06:20:16.661Z,19.75
2023-04-28T06:22:43.313Z,16.83
2023-04-28T06:25:09.852Z,23.05
2023-04-28T06:27:36.536Z,15.52
2023-04-28T06:30:03.560Z,19.40
2023-04-28T06:32:30.372Z,18.38
2023-04-28T06:34:58.391Z,18.67
2023-04-28T06:37:25.324Z,16.48
2023-04-28T06:39:51.766Z,21.17
2023-04-28T06:42:20.382Z,16.75
2023-04-28T06:44:47.188Z,16.38
2023-04-28T06:47:13.779Z,13.75
2023-04-28T06:49:40.242Z,14.68
2023-04-28T06:52:07.943Z,17.42
2023-04-28T06:54:34.656Z,11.25
2023-04-28T06:57:01.058Z,11.80
2023-04-28T06:59:28.038Z,14.13
2023-04-28T07:01:54.545Z,15.65
2023-04-28T07:04:21.442Z,12.52
2023-04-28T07:06:48.260Z,11.85
2023-04-28T07:09:15.951Z,12.38
2023-04-28T07:11:42.746Z,17.55
2023-04-28T07:14:09.403Z,12.20
2023-04-28T07:16:36.056Z,18.63
2023-04-28T07:19:02.480Z,12.90
2023-04-28T07:21:28.961Z,13.82
2023-04-28T07:23:56.949Z,10.25
2023-04-28T07:26:24.060Z,10.90
2023-04-28T07:28:50.506Z,13.18
2023-04-28T07:31:17.673Z,12.60
2023-04-28T07:33:44.523Z,13.85
2023-04-28T07:36:11.157Z,13.70
2023-04-28T07:38:37.669Z,15.18
2023-04-28T07:41:05.718Z,14.07
2023-04-28T07:43:34.041Z,10.75
2023-04-28T07:46:00.630Z,12.73
2023-04-28T07:48:27.357Z,9.85
2023-04-28T07:50:54.137Z,12.25
2023-04-28T07:53:21.226Z,13.40
2023-04-28T07:55:47.702Z,13.43
2023-04-28T07:58:14.232Z,9.25
2023-04-28T08:00:41.232Z,10.73
2023-04-28T08:03:08.004Z,12.27
2023-04-28T08:05:34.632Z,11.32
2023-04-28T08:08:01.190Z,10.88
2023-04-28T08:10:28.401Z,10.45
2023-04-28T08:12:54.917Z,9.00
2023-04-28T08:15:21.428Z,9.32
2023-04-28T08:17:47.926Z,14.25
2023-04-28T08:20:21.077Z,9.05
2023-04-28T08:22:48.797Z,8.40
2023-04-28T08:25:15.960Z,11.07
2023-04-28T08:27:42.431Z,11.48
2023-04-28T08:30:10.078Z,15.07
2023-04-28T08:32:36.696Z,9.15
2023-04-28T08:35:03.636Z,10.27
2023-04-28T08:37:30.900Z,11.95
2023-04-28T08:40:04.790Z,11.38
2023-04-28T08:42:32.107Z,11.82
2023-04-28T08:45:02.266Z,10.60
2023-04-28T08:47:34.166Z,11.50
2023-04-28T08:50:06.044Z,11.27
2023-04-28T08:52:33.261Z,9.93
2023-04-28T08:55:01.664Z,10.23
2023-04-28T08:57:30.962Z,14.27
2023-04-28T08:59:58.599Z,9.80
2023-04-28T09:02:25.559Z,8.68
2023-04-28T09:04:52.560Z,10.52
2023-04-28T09:07:19.369Z,9.18
2023-04-28T09:09:46.040Z,8.82
2023-04-28T09:12:12.489Z,10.25
2023-04-28T09:14:39.278Z,11.55
2023-04-28T09:17:13.764Z,13.05
2023-04-28T09:19:43.394Z,9.85
2023-04-28T09:22:24.768Z,11.35
2023-04-28T09:24:53.224Z,10.82
2023-04-28T09:27:26.756Z,11.65
2023-04-28T09:29:54.164Z,10.50
2023-04-28T09:32:22.427Z,12.40
2023-04-28T09:34:54.207Z,9.48
2023-04-28T09:37:22.589Z,10.63
2023-04-28T09:39:51.025Z,9.68
2023-04-28T09:42:37.462Z,8.57
2023-04-28T09:45:11.327Z,11.52
2023-04-28T09:47:42.901Z,7.70
2023-04-28T09:50:14.413Z,11.07
2023-04-28T09:52:42.195Z,10.13
2023-04-28T09:55:09.428Z,7.60
2023-04-28T09:57:36.518Z,9.02
2023-04-28T10:00:06.833Z,7.43
2023-04-28T10:02:43.336Z,8.63
2023-04-28T10:05:11.545Z,6.78
2023-04-28T10:07:39.138Z,8.00
2023-04-28T10:10:07.470Z,8.55
2023-04-28T10:12:34.809Z,7.63
2023-04-28T10:15:02.102Z,8.13
2023-04-28T10:17:29.685Z,8.40
2023-04-28T10:19:57.195Z,8.75
2023-04-28T10:22:55.954Z,10.45
2023-04-28T10:25:30.167Z,8.90
2023-04-28T10:27:57.951Z,7.65
2023-04-28T10:30:28.612Z,10.07
2023-04-28T10:33:14.346Z,12.43
2023-04-28T10:35:45.668Z,9.30
2023-04-28T10:38:14.755Z,10.23
2023-04-28T10:40:45.499Z,11.00
2023-04-28T10:43:33.054Z,8.05
2023-04-28T10:46:01.188Z,9.32
2023-04-28T10:48:33.988Z,9.68
2023-04-28T10:51:03.671Z,11.75
2023-04-28T10:53:42.681Z,9.73
2023-04-28T10:56:09.756Z,11.10
2023-04-28T10:58:39.908Z,12.25
2023-04-28T11:01:18.769Z,15.45
2023-04-28T11:03:52.470Z,13.23
2023-04-28T11:06:26.835Z,13.07
2023-04-28T11:08:55.665Z,18.83
2023-04-28T11:11:27.400Z,30.65
2023-04-28T11:13:56.499Z,25.65
2023-04-28T11:16:25.596Z,30.80
2023-04-28T11:19:03.810Z,30.70
2023-04-28T11:21:31.046Z,27.52
2023-04-28T11:23:58.711Z,35.97
2023-04-28T11:26:25.649Z,34.63
2023-04-28T11:28:54.422Z,33.17
2023-04-28T11:31:25.399Z,28.75
2023-04-28T11:34:07.629Z,17.38
2023-04-28T11:36:36.760Z,17.27
2023-04-28T11:39:08.425Z,21.20
2023-04-28T11:41:36.522Z,18.92
2023-04-28T11:44:23.541Z,16.70
2023-04-28T11:46:51.740Z,18.27
2023-04-28T11:49:18.856Z,14.50
2023-04-28T11:51:47.380Z,17.88
2023-04-28T11:54:14.995Z,17.70
2023-04-28T11:56:42.318Z,20.95
2023-04-28T11:59:10.675Z,21.77
2023-04-28T12:01:59.050Z,20.80
2023-04-28T12:04:39.467Z,20.40
2023-04-28T12:07:10.543Z,26.02
2023-04-28T12:09:39.000Z,18.17
2023-04-28T12:12:07.367Z,17.17
2023-04-28T12:15:01.507Z,16.02
2023-04-28T12:17:32.478Z,19.33
2023-04-28T12:20:01.422Z,13.95
2023-04-28T12:22:28.227Z,11.23
2023-04-28T12:25:22.360Z,10.00
2023-04-28T12:28:08.188Z,7.68
2023-04-28T12:30:42.289Z,10.82
2023-04-28T12:33:29.024Z,9.38
2023-04-28T12:35:58.920Z,11.40
2023-04-28T12:38:26.434Z,11.25
2023-04-28T12:40:53.236Z,10.68
2023-04-28T12:43:21.114Z,9.88
2023-04-28T12:45:47.708Z,10.68
2023-04-28T12:48:14.180Z,13.07
2023-04-28T12:50:40.792Z,14.30
2023-04-28T12:53:07.437Z,12.93
2023-04-28T12:55:33.871Z,13.70
2023-04-28T12:58:00.494Z,12.23
2023-04-28T13:00:27.140Z,13.98
2023-04-28T13:02:53.743Z,15.52
2023-04-28T13:05:20.585Z,14.48
2023-04-28T13:07:47.716Z,21.52
2023-04-28T13:10:14.251Z,19.23
2023-04-28T13:12:41.559Z,21.15
2023-04-28T13:15:08.777Z,16.33
2023-04-28T13:17:35.575Z,16.40
2023-04-28T13:20:03.751Z,20.55
2023-04-28T13:22:30.238Z,21.90
2023-04-28T13:24:56.621Z,18.52
2023-04-28T13:27:23.378Z,21.05
2023-04-28T13:29:49.815Z,19.75
2023-04-28T13:32:16.344Z,19.75
2023-04-28T13:34:42.844Z,20.63
2023-04-28T13:37:09.436Z,19.60
2023-04-28T13:39:35.938Z,20.48
2023-04-28T13:42:02.586Z,20.83
2023-04-28T13:44:29.144Z,20.65
2023-04-28T13:46:56.282Z,21.75
2023-04-28T13:49:23.809Z,23.48
2023-04-28T13:51:50.348Z,20.08
2023-04-28T13:54:16.784Z,19.75
2023-04-28T13:56:44.053Z,20.55
2023-04-28T13:59:11.044Z,22.23
2023-04-28T14:01:37.630Z,20.38
2023-04-28T14:04:04.726Z,20.70
2023-04-28T14:06:32.976Z,21.30
2023-04-28T14:09:01.264Z,20.73
2023-04-28T14:11:27.865Z,21.23
2023-04-28T14:13:54.473Z,21.95
2023-04-28T14:16:21.469Z,19.83
2023-04-28T14:18:47.940Z,20.77
2023-04-28T14:21:14.397Z,19.45
2023-04-28T14:23:41.078Z,20.58
2023-04-28T14:26:07.716Z,18.63
2023-04-28T14:28:35.060Z,21.38
2023-04-28T14:31:07.336Z,18.55
2023-04-28T14:33:34.080Z,19.63
2023-04-28T14:36:02.551Z,19.35
2023-04-28T14:38:30.588Z,18.23
2023-04-28T14:40:57.547Z,17.90
2023-04-28T14:43:24.747Z,17.05
2023-04-28T14:45:51.616Z,19.70
2023-04-28T14:48:18.651Z,17.45
2023-04-28T14:50:46.184Z,15.88
2023-04-28T14:53:12.777Z,18.35
2023-04-28T14:55:39.140Z,15.82
2023-04-28T14:58:05.604Z,17.23
2023-04-28T15:00:32.123Z,15.10
2023-04-28T15:02:58.800Z,21.15
2023-04-28T15:05:25.606Z,16.02
2023-04-28T15:07:52.616Z,18.70
2023-04-28T15:10:19.220Z,18.55
2023-04-28T15:12:48.225Z,18.85
2023-04-28T15:15:15.272Z,17.98
2023-04-28T15:17:41.770Z,15.05
2023-04-28T15:20:09.012Z,17.83
2023-04-28T15:22:36.626Z,16.98
2023-04-28T15:25:03.385Z,15.73
2023-04-28T15:27:29.926Z,13.77
2023-04-28T15:29:56.436Z,16.20
2023-04-28T15:32:23.368Z,14.93
2023-04-28T15:34:50.082Z,14.88
2023-04-28T15:37:43.268Z,14.93
2023-04-28T15:40:11.878Z,15.43
2023-04-28T15:42:41.992Z,16.40
2023-04-28T15:45:10.394Z,14.18
2023-04-28T15:47:38.824Z,16.58
2023-04-28T15:50:06.391Z,13.48
2023-04-28T15:52:35.940Z,15.18
2023-04-28T15:55:02.654Z,14.45
2023-04-28T15:57:29.660Z,14.25
2023-04-28T15:59:56.257Z,17.13
2023-04-28T16:02:23.541Z,16.75
2023-04-28T16:04:51.421Z,19.50
2023-04-28T16:07:18.290Z,17.52
2023-04-28T16:09:44.838Z,16.52
2023-04-28T16:12:11.716Z,16.92
2023-04-28T16:14:38.253Z,16.80
2023-04-28T16:17:04.974Z,15.57
2023-04-28T16:19:31.621Z,18.10
2023-04-28T16:21:58.270Z,20.30
2023-04-28T16:24:25.926Z,20.58
2023-04-28T16:26:52.481Z,15.68
2023-04-28T16:29:18.983Z,15.02
2023-04-28T16:31:45.709Z,13.35
2023-04-28T16:34:12.324Z,14.75
2023-04-28T16:36:40.189Z,13.95
2023-04-28T16:39:06.974Z,13.93
2023-04-28T16:41:33.554Z,13.73
2023-04-28T16:44:00.021Z,13.38
2023-04-28T16:46:26.819Z,12.60
2023-04-28T16:48:53.242Z,31.85
2023-04-28T16:51:19.739Z,21.55
2023-04-28T16:53:46.182Z,15.40
2023-04-28T16:56:12.708Z,13.70
2023-04-28T16:58:39.388Z,14.32
2023-04-28T17:01:06.018Z,15.87
2023-04-28T17:03:33.892Z,14.77
2023-04-28T17:06:00.849Z,14.60
2023-04-28T17:08:27.368Z,17.70
2023-04-28T17:10:53.913Z,16.02
2023-04-28T17:13:20.410Z,15.40
2023-04-28T17:15:54.337Z,15.65
2023-04-28T17:18:21.115Z,14.77
2023-04-28T17:20:48.139Z,15.23
2023-04-28T17:23:15.243Z,14.90
2023-04-28T17:25:41.744Z,15.25
2023-04-28T17:28:08.264Z,14.23
2023-04-28T17:30:35.668Z,13.85
2023-04-28T17:33:02.863Z,14.60
2023-04-28T17:35:30.207Z,16.20
2023-04-28T17:37:57.036Z,17.08
2023-04-28T17:40:24.192Z,17.73
2023-04-28T17:42:51.477Z,16.88
2023-04-28T17:45:18.119Z,13.98
2023-04-28T17:47:44.656Z,14.50
2023-04-28T17:50:11.288Z,13.20
2023-04-28T17:52:38.914Z,14.88
2023-04-28T17:55:06.047Z,14.95
2023-04-28T17:57:33.619Z,13.98
2023-04-28T18:00:00.486Z,13.85
2023-04-28T18:02:27.361Z,14.10
2023-04-28T18:04:54.985Z,17.17
2023-04-28T18:07:21.659Z,13.48
2023-04-28T18:09:48.225Z,14.20
2023-04-28T18:12:17.231Z,13.30
2023-04-28T18:14:44.424Z,15.65
2023-04-28T18:17:11.157Z,12.82
2023-04-28T18:19:37.782Z,16.23
2023-04-28T18:22:05.503Z,16.02
2023-04-28T18:24:32.430Z,12.93
2023-04-28T18:26:59.306Z,16.27
2023-04-28T18:29:25.858Z,13.20
2023-04-28T18:31:52.461Z,11.02
2023-04-28T18:34:19.112Z,12.68
2023-04-28T18:36:45.676Z,12.98
2023-04-28T18:39:12.565Z,11.00
2023-04-28T18:41:40.218Z,13.77
2023-04-28T18:44:06.823Z,13.18
2023-04-28T18:46:34.048Z,13.13
2023-04-28T18:49:00.620Z,13.23
2023-04-28T18:51:27.334Z,12.82
2023-04-28T18:53:54.361Z,12.10
2023-04-28T18:56:21.818Z,17.08
2023-04-28T18:58:48.399Z,11.55
2023-04-28T19:01:16.258Z,14.07
2023-04-28T19:03:43.716Z,15.40
2023-04-28T19:06:11.147Z,12.18
2023-04-28T19:08:39.107Z,14.63
2023-04-28T19:11:07.135Z,14.55
2023-04-28T19:13:34.404Z,14.35
2023-04-28T19:16:02.154Z,15.43
2023-04-28T19:18:30.353Z,14.20
2023-04-28T19:21:01.617Z,15.20
2023-04-28T19:23:29.045Z,17.70
2023-04-28T19:25:59.152Z,16.67
2023-04-28T19:28:26.738Z,19.00
2023-04-28T19:30:54.642Z,19.88
2023-04-28T19:33:24.900Z,18.55
2023-04-28T19:35:56.474Z,17.70
2023-04-28T19:38:23.361Z,18.60
2023-04-28T19:40:53.402Z,19.65
2023-04-28T19:43:19.876Z,19.02
2023-04-28T19:45:47.186Z,18.58
2023-04-28T19:48:14.479Z,19.02
2023-04-28T19:50:42.165Z,19.40
2023-04-28T19:53:09.418Z,20.40
2023-04-28T19:55:36.486Z,18.90
2023-04-28T19:58:04.920Z,20.30
2023-04-28T20:00:32.575Z,21.23
2023-04-28T20:02:59.864Z,20.58
2023-04-28T20:05:27.336Z,22.33
2023-04-28T20:07:56.169Z,23.05
2023-04-28T20:10:23.851Z,19.35
2023-04-28T20:12:50.810Z,20.52
2023-04-28T20:15:18.328Z,21.05
2023-04-28T20:17:47.189Z,24.02
2023-04-28T20:20:13.855Z,19.88
2023-04-28T20:22:41.165Z,22.17
2023-04-28T20:25:10.289Z,19.65
2023-04-28T20:27:37.058Z,22.10
2023-04-28T20:30:04.524Z,21.30
2023-04-28T20:32:31.800Z,20.53
2023-04-28T20:34:58.450Z,20.90
2023-04-28T20:37:26.377Z,20.97
2023-04-28T20:39:53.219Z,21.52
2023-04-28T20:42:19.787Z,21.30
2023-04-28T20:44:46.571Z,21.33
2023-04-28T20:47:14.122Z,19.80
2023-04-28T20:49:41.928Z,19.27
2023-04-28T20:52:08.722Z,21.35
2023-04-28T20:54:39.834Z,20.92
2023-04-28T20:57:06.603Z,19.52
2023-04-28T20:59:33.414Z,21.85
2023-04-28T21:02:00.295Z,20.65
2023-04-28T21:04:28.034Z,23.97
2023-04-28T21:06:54.716Z,21.92
2023-04-28T21:09:22.576Z,23.15
2023-04-28T21:11:49.166Z,19.60
2023-04-28T21:14:15.636Z,20.17
2023-04-28T21:16:43.565Z,22.95
2023-04-28T21:19:10.658Z,22.20
2023-04-28T21:21:37.681Z,22.25
2023-04-28T21:24:05.911Z,23.83
2023-04-28T21:26:32.560Z,24.13
2023-04-28T21:28:59.194Z,23.08
2023-04-28T21:31:26.534Z,22.80
2023-04-28T21:33:53.302Z,24.67
2023-04-28T21:36:19.832Z,26.02
2023-04-28T21:38:46.486Z,23.90
2023-04-28T21:41:13.363Z,26.83
2023-04-28T21:43:40.559Z,23.55
2023-04-28T21:46:07.199Z,26.30
2023-04-28T21:48:33.738Z,20.43
2023-04-28T21:51:01.317Z,24.23
2023-04-28T21:53:28.708Z,22.97
2023-04-28T21:55:55.553Z,21.73
2023-04-28T21:58:22.234Z,21.92
2023-04-28T22:00:48.800Z,22.05
2023-04-28T22:03:16.225Z,20.65
2023-04-28T22:05:44.185Z,23.52
2023-04-28T22:08:10.792Z,20.25
2023-04-28T22:10:37.988Z,23.88
2023-04-28T22:13:05.223Z,21.35
2023-04-28T22:15:32.974Z,18.92
2023-04-28T22:17:59.958Z,21.98
2023-04-28T22:20:27.003Z,19.65
2023-04-28T22:22:53.964Z,17.92
2023-04-28T22:25:20.592Z,18.52
2023-04-28T22:27:47.189Z,23.55
2023-04-28T22:30:13.919Z,21.05
2023-04-28T22:32:44.612Z,18.63
2023-04-28T22:35:14.403Z,18.20
2023-04-28T22:37:41.130Z,19.88
2023-04-28T22:40:08.843Z,17.80
2023-04-28T22:42:39.972Z,20.17
2023-04-28T22:45:07.211Z,20.10
2023-04-28T22:47:34.680Z,20.83
2023-04-28T22:50:04.315Z,20.85
2023-04-28T22:52:31.656Z,20.60
2023-04-28T22:54:58.439Z,23.30
2023-04-28T22:57:25.112Z,25.92
2023-04-28T22:59:51.788Z,26.83
2023-04-28T23:02:18.877Z,25.63
2023-04-28T23:04:45.792Z,23.17
2023-04-28T23:07:12.599Z,25.70
2023-04-28T23:09:39.089Z,25.92
2023-04-28T23:12:06.057Z,27.13
2023-04-28T23:14:33.084Z,28.67
2023-04-28T23:16:59.831Z,28.52
2023-04-28T23:19:26.710Z,28.88
2023-04-28T23:21:55.628Z,26.43
2023-04-28T23:24:24.957Z,29.30
2023-04-28T23:26:51.950Z,30.35
2023-04-28T23:29:18.554Z,32.25
2023-04-28T23:31:52.373Z,31.13
2023-04-28T23:34:19.668Z,32.35
2023-04-28T23:36:46.585Z,31.60
2023-04-28T23:39:13.564Z,30.42
2023-04-28T23:41:41.277Z,32.03
2023-04-28T23:44:08.488Z,32.65
2023-04-28T23:46:35.252Z,34.95
2023-04-28T23:49:02.105Z,38.83
2023-04-28T23:51:28.701Z,36.85
2023-04-28T23:53:55.632Z,33.53
2023-04-28T23:56:22.808Z,34.90
2023-04-28T23:58:49.420Z,34.42
